createdAt,value
2019-05-25T00:01:55.071Z,100232.00
2019-05-25T00:04:22.955Z,100235.00
2019-05-25T00:06:50.936Z,100241.00
2019-05-25T00:09:19.195Z,100230.00
2019-05-25T00:11:47.075Z,100228.00
2019-05-25T00:14:14.971Z,100230.00
2019-05-25T00:16:42.868Z,100224.00
2019-05-25T00:19:10.674Z,100222.00
2019-05-25T00:21:39.542Z,100230.00
2019-05-25T00:24:12.089Z,100229.00
2019-05-25T00:26:37.160Z,100232.00
2019-05-25T00:29:05.165Z,100239.00
2019-05-25T00:31:33.015Z,100243.00
2019-05-25T00:34:00.927Z,100242.00
2019-05-25T00:36:28.774Z,100246.00
2019-05-25T00:38:56.740Z,100253.00
2019-05-25T00:41:24.586Z,100249.00
2019-05-25T00:43:52.471Z,100240.00
2019-05-25T00:46:20.339Z,100243.00
2019-05-25T00:48:48.188Z,100239.00
2019-05-25T00:51:16.036Z,100241.00
2019-05-25T00:53:43.880Z,100249.00
2019-05-25T00:56:11.753Z,100242.00
2019-05-25T00:58:39.595Z,100241.00
2019-05-25T01:01:07.944Z,100240.00
2019-05-25T01:03:35.740Z,100240.00
2019-05-25T01:06:03.778Z,100256.00
2019-05-25T01:08:31.589Z,100246.00
2019-05-25T01:10:59.431Z,100234.00
2019-05-25T01:13:27.299Z,100233.00
2019-05-25T01:15:55.153Z,100236.00
2019-05-25T01:18:23.021Z,100241.00
2019-05-25T01:20:51.010Z,100253.00
2019-05-25T01:23:18.988Z,100248.00
2019-05-25T01:25:46.985Z,100251.00
2019-05-25T01:28:14.833Z,100247.00
2019-05-25T01:30:42.712Z,100256.00
2019-05-25T01:33:11.659Z,100252.00
2019-05-25T01:35:39.482Z,100253.00
2019-05-25T01:38:08.478Z,100248.00
2019-05-25T01:40:36.359Z,100255.00
2019-05-25T01:43:04.221Z,100253.00
2019-05-25T01:45:32.106Z,100248.00
2019-05-25T01:48:00.215Z,100255.00
2019-05-25T01:50:28.083Z,100260.00
2019-05-25T01:52:55.931Z,100260.00
2019-05-25T01:55:23.828Z,100252.00
2019-05-25T01:57:51.748Z,100255.00
2019-05-25T02:00:20.690Z,100260.00
2019-05-25T02:02:48.606Z,100260.00
2019-05-25T02:05:16.896Z,100259.00
2019-05-25T02:07:44.829Z,100258.00
2019-05-25T02:10:13.025Z,100260.00
2019-05-25T02:12:40.908Z,100264.00
2019-05-25T02:15:10.573Z,100259.00
2019-05-25T02:17:38.523Z,100261.00
2019-05-25T02:20:06.608Z,100261.00
2019-05-25T02:22:34.527Z,100259.00
2019-05-25T02:25:16.255Z,100251.00
2019-05-25T02:27:32.264Z,100253.00
2019-05-25T02:30:00.067Z,100262.00
2019-05-25T02:32:27.934Z,100254.00
2019-05-25T02:34:55.773Z,100263.00
2019-05-25T02:37:23.638Z,100258.00
2019-05-25T02:39:51.484Z,100271.00
2019-05-25T02:42:19.337Z,100253.00
2019-05-25T02:44:47.190Z,100261.00
2019-05-25T02:47:16.273Z,100261.00
2019-05-25T02:49:44.184Z,100266.00
2019-05-25T02:52:12.253Z,100269.00
2019-05-25T02:54:40.100Z,100268.00
2019-05-25T02:57:07.936Z,100272.00
2019-05-25T02:59:35.814Z,100283.00
2019-05-25T03:02:06.532Z,100273.00
2019-05-25T03:04:34.388Z,100268.00
2019-05-25T03:07:02.647Z,100278.00
2019-05-25T03:09:31.649Z,100278.00
2019-05-25T03:11:59.606Z,100286.00
2019-05-25T03:14:27.497Z,100276.00
2019-05-25T03:16:55.332Z,100279.00
2019-05-25T03:19:23.168Z,100283.00
2019-05-25T03:21:50.983Z,100288.00
2019-05-25T03:24:18.872Z,100282.00
2019-05-25T03:26:46.667Z,100288.00
2019-05-25T03:29:14.499Z,100287.00
2019-05-25T03:31:42.338Z,100285.00
2019-05-25T03:34:10.208Z,100287.00
2019-05-25T03:36:39.170Z,100286.00
2019-05-25T03:39:08.021Z,100288.00
2019-05-25T03:41:35.980Z,100289.00
2019-05-25T03:44:04.156Z,100288.00
2019-05-25T03:46:33.050Z,100287.00
2019-05-25T03:49:00.902Z,100296.00
2019-05-25T03:51:28.748Z,100298.00
2019-05-25T03:53:56.667Z,100294.00
2019-05-25T03:56:24.505Z,100290.00
2019-05-25T03:58:52.373Z,100294.00
2019-05-25T04:01:20.216Z,100295.00
2019-05-25T04:03:49.155Z,100288.00
2019-05-25T04:06:17.076Z,100293.00
2019-05-25T04:08:44.935Z,100299.00
2019-05-25T04:11:12.811Z,100303.00
2019-05-25T04:13:40.616Z,100296.00
2019-05-25T04:16:08.490Z,100302.00
2019-05-25T04:18:36.450Z,100299.00
2019-05-25T04:21:04.376Z,100302.00
2019-05-25T04:23:32.219Z,100300.00
2019-05-25T04:26:00.122Z,100298.00
2019-05-25T04:28:27.996Z,100300.00
2019-05-25T04:30:55.841Z,100293.00
2019-05-25T04:33:23.647Z,100293.00
2019-05-25T04:35:51.534Z,100294.00
2019-05-25T04:38:20.407Z,100297.00
2019-05-25T04:40:48.549Z,100296.00
2019-05-25T04:43:16.425Z,100300.00
2019-05-25T04:45:44.240Z,100308.00
2019-05-25T04:48:12.198Z,100311.00
2019-05-25T04:50:40.058Z,100301.00
2019-05-25T04:53:07.896Z,100302.00
2019-05-25T04:55:35.757Z,100309.00
2019-05-25T04:58:03.689Z,100318.00
2019-05-25T05:00:31.581Z,100312.00
2019-05-25T05:02:59.423Z,100313.00
2019-05-25T05:05:27.336Z,100306.00
2019-05-25T05:07:55.200Z,100317.00
2019-05-25T05:10:23.029Z,100317.00
2019-05-25T05:12:50.853Z,100316.00
2019-05-25T05:15:19.826Z,100316.00
2019-05-25T05:17:47.822Z,100320.00
2019-05-25T05:20:15.789Z,100321.00
2019-05-25T05:22:43.648Z,100324.00
2019-05-25T05:25:12.357Z,100320.00
2019-05-25T05:27:40.378Z,100324.00
2019-05-25T05:30:08.647Z,100315.00
2019-05-25T05:32:36.478Z,100318.00
2019-05-25T05:35:06.442Z,100333.00
2019-05-25T05:37:35.068Z,100311.00
2019-05-25T05:40:03.733Z,100325.00
2019-05-25T05:42:32.494Z,100340.00
2019-05-25T05:45:03.549Z,100339.00
2019-05-25T05:47:34.871Z,100343.00
2019-05-25T05:50:04.012Z,100342.00
2019-05-25T05:52:37.396Z,100349.00
2019-05-25T05:55:07.157Z,100348.00
2019-05-25T05:57:35.053Z,100346.00
2019-05-25T06:00:04.488Z,100346.00
2019-05-25T06:02:32.426Z,100350.00
2019-05-25T06:05:00.284Z,100357.00
2019-05-25T06:07:28.252Z,100354.00
2019-05-25T06:09:56.150Z,100354.00
2019-05-25T06:12:23.969Z,100362.00
2019-05-25T06:14:51.856Z,100360.00
2019-05-25T06:17:19.790Z,100366.00
2019-05-25T06:19:47.620Z,100366.00
2019-05-25T06:22:15.752Z,100363.00
2019-05-25T06:24:43.609Z,100357.00
2019-05-25T06:27:24.658Z,100364.00
2019-05-25T06:29:41.402Z,100368.00
2019-05-25T06:32:09.255Z,100361.00
2019-05-25T06:34:37.422Z,100361.00
2019-05-25T06:37:06.354Z,100370.00
2019-05-25T06:39:34.314Z,100364.00
2019-05-25T06:42:02.513Z,100364.00
2019-05-25T06:44:31.504Z,100375.00
2019-05-25T06:46:59.433Z,100378.00
2019-05-25T06:49:27.407Z,100381.00
2019-05-25T06:51:55.329Z,100374.00
2019-05-25T06:54:23.240Z,100371.00
2019-05-25T06:56:52.197Z,100371.00
2019-05-25T06:59:20.085Z,100375.00
2019-05-25T07:01:49.250Z,100289.00
2019-05-25T07:04:17.090Z,100380.00
2019-05-25T07:06:44.944Z,100381.00
2019-05-25T07:09:12.875Z,100380.00
2019-05-25T07:11:40.720Z,100386.00
2019-05-25T07:14:09.843Z,100378.00
2019-05-25T07:16:37.745Z,100376.00
2019-05-25T07:19:05.764Z,100387.00
2019-05-25T07:21:33.930Z,100388.00
2019-05-25T07:24:01.822Z,100387.00
2019-05-25T07:26:29.740Z,100390.00
2019-05-25T07:28:57.699Z,100385.00
2019-05-25T07:31:25.593Z,100388.00
2019-05-25T07:33:53.513Z,100395.00
2019-05-25T07:36:21.364Z,100394.00
2019-05-25T07:38:49.291Z,100394.00
2019-05-25T07:41:20.138Z,100396.00
2019-05-25T07:43:48.029Z,100401.00
2019-05-25T07:46:17.201Z,100397.00
2019-05-25T07:48:45.346Z,100356.00
2019-05-25T07:51:13.272Z,100397.00
2019-05-25T07:53:41.280Z,100400.00
2019-05-25T07:56:09.345Z,100402.00
2019-05-25T07:58:37.481Z,100370.00
2019-05-25T08:01:05.509Z,100412.00
2019-05-25T08:03:33.495Z,100414.00
2019-05-25T08:06:01.525Z,100422.00
2019-05-25T08:08:29.523Z,100417.00
2019-05-25T08:10:57.629Z,100413.00
2019-05-25T08:13:25.582Z,100410.00
2019-05-25T08:15:53.531Z,100411.00
2019-05-25T08:18:21.527Z,100404.00
2019-05-25T08:20:49.931Z,100405.00
2019-05-25T08:23:17.885Z,100398.00
2019-05-25T08:25:45.908Z,100407.00
2019-05-25T08:28:13.812Z,100399.00
2019-05-25T08:30:41.871Z,100407.00
2019-05-25T08:33:09.799Z,100407.00
2019-05-25T08:35:37.901Z,100410.00
2019-05-25T08:38:06.037Z,100401.00
2019-05-25T08:40:34.412Z,100403.00
2019-05-25T08:43:02.336Z,100407.00
2019-05-25T08:45:30.349Z,100412.00
2019-05-25T08:47:58.261Z,100413.00
2019-05-25T08:50:37.746Z,100412.00
2019-05-25T08:52:58.131Z,100408.00
2019-05-25T08:55:26.242Z,100410.00
2019-05-25T08:57:54.123Z,100416.00
2019-05-25T09:00:22.351Z,100419.00
2019-05-25T09:02:51.620Z,100421.00
2019-05-25T09:05:19.565Z,100409.00
2019-05-25T09:07:47.536Z,100418.00
2019-05-25T09:10:15.721Z,100415.00
2019-05-25T09:12:43.700Z,100423.00
2019-05-25T09:15:12.061Z,100411.00
2019-05-25T09:17:40.108Z,100419.00
2019-05-25T09:20:08.851Z,100422.00
2019-05-25T09:22:36.870Z,100420.00
2019-05-25T09:25:05.048Z,100406.00
2019-05-25T09:27:32.966Z,100419.00
2019-05-25T09:30:00.842Z,100421.00
2019-05-25T09:32:28.748Z,100417.00
2019-05-25T09:34:56.800Z,100417.00
2019-05-25T09:37:24.830Z,100410.00
2019-05-25T09:39:52.889Z,100408.00
2019-05-25T09:42:20.805Z,100411.00
2019-05-25T09:44:48.727Z,100411.00
2019-05-25T09:47:16.706Z,100415.00
2019-05-25T09:49:44.689Z,100406.00
2019-05-25T09:52:12.599Z,100414.00
2019-05-25T09:54:41.385Z,100408.00
2019-05-25T09:57:09.294Z,100404.00
2019-05-25T09:59:37.217Z,100413.00
2019-05-25T10:02:05.225Z,100405.00
2019-05-25T10:04:33.243Z,100413.00
2019-05-25T10:07:01.167Z,100408.00
2019-05-25T10:09:29.128Z,100404.00
2019-05-25T10:11:57.032Z,100406.00
2019-05-25T10:14:24.867Z,100406.00
2019-05-25T10:16:52.817Z,100396.00
2019-05-25T10:19:20.994Z,100394.00
2019-05-25T10:21:48.954Z,100390.00
2019-05-25T10:24:16.861Z,100396.00
2019-05-25T10:26:44.846Z,100389.00
2019-05-25T10:29:13.780Z,100401.00
2019-05-25T10:31:41.675Z,100379.00
2019-05-25T10:34:10.284Z,100396.00
2019-05-25T10:36:38.317Z,100395.00
2019-05-25T10:39:07.589Z,100387.00
2019-05-25T10:41:35.642Z,100381.00
2019-05-25T10:44:03.967Z,100380.00
2019-05-25T10:46:32.208Z,100378.00
2019-05-25T10:49:00.107Z,100379.00
2019-05-25T10:51:28.055Z,100374.00
2019-05-25T10:53:56.003Z,100367.00
2019-05-25T10:56:24.005Z,100374.00
2019-05-25T10:58:51.964Z,100369.00
2019-05-25T11:01:19.900Z,100360.00
2019-05-25T11:03:47.819Z,100351.00
2019-05-25T11:06:15.784Z,100361.00
2019-05-25T11:08:43.708Z,100362.00
2019-05-25T11:11:11.660Z,100362.00
2019-05-25T11:13:39.600Z,100355.00
2019-05-25T11:16:07.511Z,100352.00
2019-05-25T11:18:35.724Z,100356.00
2019-05-25T11:21:03.625Z,100350.00
2019-05-25T11:23:34.932Z,100357.00
2019-05-25T11:26:03.012Z,100351.00
2019-05-25T11:28:31.079Z,100343.00
2019-05-25T11:30:59.005Z,100345.00
2019-05-25T11:33:26.934Z,100345.00
2019-05-25T11:35:54.831Z,100345.00
2019-05-25T11:38:22.779Z,100337.00
2019-05-25T11:40:50.725Z,100338.00
2019-05-25T11:43:18.647Z,100346.00
2019-05-25T11:45:46.576Z,100337.00
2019-05-25T11:48:14.593Z,100336.00
2019-05-25T11:50:42.494Z,100340.00
2019-05-25T11:53:11.051Z,100336.00
2019-05-25T11:55:38.992Z,100334.00
2019-05-25T11:58:06.965Z,100337.00
2019-05-25T12:00:34.964Z,100335.00
2019-05-25T12:03:03.079Z,100334.00
2019-05-25T12:05:31.166Z,100335.00
2019-05-25T12:07:59.074Z,100339.00
2019-05-25T12:10:26.966Z,100334.00
2019-05-25T12:12:54.839Z,100338.00
2019-05-25T12:15:22.790Z,100335.00
2019-05-25T12:17:50.700Z,100335.00
2019-05-25T12:20:19.663Z,100330.00
2019-05-25T12:22:47.558Z,100323.00
2019-05-25T12:25:15.726Z,100323.00
2019-05-25T12:27:43.644Z,100316.00
2019-05-25T12:30:12.003Z,100314.00
2019-05-25T12:32:39.889Z,100310.00
2019-05-25T12:35:08.154Z,100310.00
2019-05-25T12:37:36.060Z,100305.00
2019-05-25T12:40:04.637Z,100321.00
2019-05-25T12:42:32.500Z,100311.00
2019-05-25T12:45:00.777Z,100297.00
2019-05-25T12:47:28.633Z,100292.00
2019-05-25T12:49:57.505Z,100289.00
2019-05-25T12:52:25.377Z,100291.00
2019-05-25T12:54:53.298Z,100291.00
2019-05-25T12:57:23.643Z,100290.00
2019-05-25T12:59:51.121Z,100293.00
2019-05-25T13:02:19.294Z,100286.00
2019-05-25T13:04:47.300Z,100289.00
2019-05-25T13:07:15.292Z,100291.00
2019-05-25T13:09:43.189Z,100290.00
2019-05-25T13:12:11.089Z,100293.00
2019-05-25T13:14:39.143Z,100289.00
2019-05-25T13:17:07.027Z,100282.00
2019-05-25T13:19:35.187Z,100285.00
2019-05-25T13:22:03.099Z,100274.00
2019-05-25T13:24:30.961Z,100291.00
2019-05-25T13:26:58.867Z,100291.00
2019-05-25T13:29:26.784Z,100282.00
2019-05-25T13:31:54.673Z,100284.00
2019-05-25T13:34:22.559Z,100290.00
2019-05-25T13:36:50.467Z,100287.00
2019-05-25T13:39:19.221Z,100271.00
2019-05-25T13:41:47.176Z,100278.00
2019-05-25T13:44:15.157Z,100280.00
2019-05-25T13:46:43.034Z,100282.00
2019-05-25T13:49:11.069Z,100278.00
2019-05-25T13:51:39.080Z,100291.00
2019-05-25T13:54:06.961Z,100275.00
2019-05-25T13:56:36.163Z,100279.00
2019-05-25T13:59:04.235Z,100286.00
2019-05-25T14:01:32.315Z,100284.00
2019-05-25T14:04:00.306Z,100279.00
2019-05-25T14:06:28.246Z,100276.00
2019-05-25T14:08:56.166Z,100280.00
2019-05-25T14:11:25.813Z,100276.00
2019-05-25T14:13:55.250Z,100273.00
2019-05-25T14:16:28.358Z,100274.00
2019-05-25T14:18:56.530Z,100278.00
2019-05-25T14:21:24.496Z,100274.00
2019-05-25T14:23:53.466Z,100275.00
2019-05-25T14:26:25.120Z,100269.00
2019-05-25T14:28:53.000Z,100259.00
2019-05-25T14:31:20.883Z,100276.00
2019-05-25T14:33:49.587Z,100274.00
2019-05-25T14:36:17.505Z,100272.00
2019-05-25T14:38:45.371Z,100275.00
2019-05-25T14:41:13.279Z,100278.00
2019-05-25T14:43:41.193Z,100281.00
2019-05-25T14:46:09.077Z,100285.00
2019-05-25T14:48:39.161Z,100280.00
2019-05-25T14:51:07.091Z,100266.00
2019-05-25T14:53:34.968Z,100269.00
2019-05-25T14:56:02.914Z,100281.00
2019-05-25T14:58:30.798Z,100276.00
2019-05-25T15:00:58.651Z,100275.00
2019-05-25T15:03:26.600Z,100285.00
2019-05-25T15:05:54.535Z,100288.00
2019-05-25T15:08:22.398Z,100282.00
2019-05-25T15:10:50.249Z,100282.00
2019-05-25T15:13:18.204Z,100273.00
2019-05-25T15:15:46.047Z,100276.00
2019-05-25T15:18:14.985Z,100277.00
2019-05-25T15:20:42.905Z,100273.00
2019-05-25T15:23:10.779Z,100278.00
2019-05-25T15:25:39.419Z,100275.00
2019-05-25T15:28:07.251Z,100281.00
2019-05-25T15:30:35.088Z,100265.00
2019-05-25T15:33:02.949Z,100268.00
2019-05-25T15:35:30.779Z,100269.00
2019-05-25T15:37:58.695Z,100276.00
2019-05-25T15:40:26.553Z,100265.00
2019-05-25T15:42:54.528Z,100271.00
2019-05-25T15:45:22.376Z,100279.00
2019-05-25T15:47:50.298Z,100272.00
2019-05-25T15:50:18.847Z,100266.00
2019-05-25T15:52:46.721Z,100275.00
2019-05-25T15:55:14.696Z,100282.00
2019-05-25T15:57:42.664Z,100281.00
2019-05-25T16:00:11.609Z,100283.00
2019-05-25T16:02:39.619Z,100288.00
2019-05-25T16:05:08.662Z,100291.00
2019-05-25T16:07:41.017Z,100267.00
2019-05-25T16:10:09.193Z,100289.00
2019-05-25T16:12:37.152Z,100290.00
2019-05-25T16:15:05.506Z,100287.00
2019-05-25T16:17:33.337Z,100289.00
2019-05-25T16:20:01.255Z,100289.00
2019-05-25T16:22:29.452Z,100289.00
2019-05-25T16:24:57.375Z,100295.00
2019-05-25T16:27:25.299Z,100295.00
2019-05-25T16:29:53.150Z,100296.00
2019-05-25T16:32:21.177Z,100299.00
2019-05-25T16:34:49.151Z,100298.00
2019-05-25T16:37:17.339Z,100295.00
2019-05-25T16:39:45.441Z,100301.00
2019-05-25T16:42:13.365Z,100301.00
2019-05-25T16:44:42.544Z,100300.00
2019-05-25T16:47:10.484Z,100303.00
2019-05-25T16:49:39.390Z,100301.00
2019-05-25T16:52:07.271Z,100303.00
2019-05-25T16:54:35.145Z,100300.00
2019-05-25T16:57:03.093Z,100300.00
2019-05-25T16:59:31.076Z,100304.00
2019-05-25T17:01:59.029Z,100308.00
2019-05-25T17:04:26.937Z,100297.00
2019-05-25T17:06:54.811Z,100301.00
2019-05-25T17:09:22.675Z,100293.00
2019-05-25T17:11:50.675Z,100307.00
2019-05-25T17:14:18.633Z,100299.00
2019-05-25T17:16:46.538Z,100304.00
2019-05-25T17:19:14.566Z,100293.00
2019-05-25T17:21:42.503Z,100305.00
2019-05-25T17:24:10.387Z,100312.00
2019-05-25T17:26:38.423Z,100304.00
2019-05-25T17:29:06.668Z,100301.00
2019-05-25T17:31:34.650Z,100312.00
2019-05-25T17:34:02.478Z,100310.00
2019-05-25T17:36:30.414Z,100314.00
2019-05-25T17:38:58.310Z,100318.00
2019-05-25T17:41:26.232Z,100317.00
2019-05-25T17:43:54.136Z,100330.00
2019-05-25T17:46:22.081Z,100334.00
2019-05-25T17:48:49.906Z,100337.00
2019-05-25T17:51:17.792Z,100338.00
2019-05-25T17:53:45.707Z,100322.00
2019-05-25T17:56:13.608Z,100330.00
2019-05-25T17:58:41.476Z,100324.00
2019-05-25T18:01:09.413Z,100335.00
2019-05-25T18:03:37.360Z,100340.00
2019-05-25T18:06:05.225Z,100346.00
2019-05-25T18:08:33.233Z,100341.00
2019-05-25T18:11:01.249Z,100340.00
2019-05-25T18:13:29.355Z,100342.00
2019-05-25T18:15:57.257Z,100338.00
2019-05-25T18:18:25.183Z,100348.00
2019-05-25T18:20:53.137Z,100354.00
2019-05-25T18:23:21.286Z,100350.00
2019-05-25T18:25:49.216Z,100351.00
2019-05-25T18:28:17.202Z,100362.00
2019-05-25T18:30:45.221Z,100360.00
2019-05-25T18:33:13.173Z,100361.00
2019-05-25T18:35:41.061Z,100367.00
2019-05-25T18:38:09.024Z,100371.00
2019-05-25T18:40:37.069Z,100367.00
2019-05-25T18:43:05.017Z,100355.00
2019-05-25T18:45:33.018Z,100367.00
2019-05-25T18:48:00.873Z,100363.00
2019-05-25T18:50:28.812Z,100367.00
2019-05-25T18:52:56.726Z,100366.00
2019-05-25T18:55:24.726Z,100375.00
2019-05-25T18:57:52.718Z,100379.00
2019-05-25T19:00:21.040Z,100377.00
2019-05-25T19:02:48.972Z,100380.00
2019-05-25T19:05:16.974Z,100376.00
2019-05-25T19:07:44.880Z,100385.00
2019-05-25T19:10:12.955Z,100379.00
2019-05-25T19:12:40.950Z,100381.00
2019-05-25T19:15:10.016Z,100384.00
2019-05-25T19:17:38.511Z,100381.00
2019-05-25T19:20:07.221Z,100388.00
2019-05-25T19:22:35.139Z,100391.00
2019-05-25T19:25:03.031Z,100407.00
2019-05-25T19:27:31.009Z,100404.00
2019-05-25T19:29:58.872Z,100408.00
2019-05-25T19:32:26.799Z,100413.00
2019-05-25T19:34:59.551Z,100420.00
2019-05-25T19:37:24.780Z,100427.00
2019-05-25T19:39:52.700Z,100429.00
2019-05-25T19:42:20.687Z,100432.00
2019-05-25T19:44:48.732Z,100433.00
2019-05-25T19:47:17.751Z,100435.00
2019-05-25T19:49:45.656Z,100439.00
2019-05-25T19:52:13.587Z,100435.00
2019-05-25T19:54:41.461Z,100441.00
2019-05-25T19:57:09.373Z,100445.00
2019-05-25T19:59:37.306Z,100445.00
2019-05-25T20:02:05.205Z,100446.00
2019-05-25T20:04:33.137Z,100455.00
2019-05-25T20:07:01.132Z,100456.00
2019-05-25T20:09:29.059Z,100465.00
2019-05-25T20:11:56.909Z,100470.00
2019-05-25T20:14:24.940Z,100465.00
2019-05-25T20:16:52.986Z,100468.00
2019-05-25T20:19:20.896Z,100466.00
2019-05-25T20:21:48.911Z,100469.00
2019-05-25T20:24:16.988Z,100474.00
2019-05-25T20:26:45.019Z,100478.00
2019-05-25T20:29:12.971Z,100476.00
2019-05-25T20:31:40.979Z,100480.00
2019-05-25T20:34:08.844Z,100477.00
2019-05-25T20:36:36.834Z,100467.00
2019-05-25T20:39:06.268Z,100490.00
2019-05-25T20:41:34.150Z,100489.00
2019-05-25T20:44:02.057Z,100482.00
2019-05-25T20:46:29.987Z,100483.00
2019-05-25T20:48:59.311Z,100497.00
2019-05-25T20:51:27.231Z,100490.00
2019-05-25T20:53:55.289Z,100494.00
2019-05-25T20:56:23.289Z,100491.00
2019-05-25T20:58:51.888Z,100508.00
2019-05-25T21:01:19.820Z,100510.00
2019-05-25T21:03:47.689Z,100505.00
2019-05-25T21:06:15.665Z,100506.00
2019-05-25T21:08:43.660Z,100506.00
2019-05-25T21:11:11.530Z,100505.00
2019-05-25T21:13:39.594Z,100518.00
2019-05-25T21:16:07.583Z,100512.00
2019-05-25T21:18:35.615Z,100521.00
2019-05-25T21:21:03.499Z,100526.00
2019-05-25T21:23:31.703Z,100528.00
2019-05-25T21:25:59.603Z,100526.00
2019-05-25T21:28:27.457Z,100532.00
2019-05-25T21:30:55.455Z,100537.00
2019-05-25T21:33:23.334Z,100530.00
2019-05-25T21:36:06.913Z,100540.00
2019-05-25T21:38:21.111Z,100527.00
2019-05-25T21:40:49.093Z,100516.00
2019-05-25T21:43:16.976Z,100523.00
2019-05-25T21:45:44.900Z,100521.00
2019-05-25T21:48:12.850Z,100519.00
2019-05-25T21:50:40.831Z,100511.00
2019-05-25T21:53:11.207Z,100435.00
2019-05-25T21:55:38.533Z,100509.00
2019-05-25T21:58:06.383Z,100507.00
2019-05-25T22:00:36.700Z,100506.00
2019-05-25T22:03:04.615Z,100510.00
2019-05-25T22:05:32.555Z,100505.00
2019-05-25T22:08:00.421Z,100503.00
2019-05-25T22:10:28.406Z,100501.00
2019-05-25T22:12:56.302Z,100495.00
2019-05-25T22:15:24.550Z,100504.00
2019-05-25T22:17:52.547Z,100509.00
2019-05-25T22:20:25.494Z,100509.00
2019-05-25T22:22:53.398Z,100499.00
2019-05-25T22:25:21.360Z,100505.00
2019-05-25T22:27:49.227Z,100504.00
2019-05-25T22:30:17.425Z,100501.00
2019-05-25T22:32:45.289Z,100501.00
2019-05-25T22:35:13.827Z,100498.00
2019-05-25T22:37:42.106Z,100502.00
2019-05-25T22:40:10.577Z,100496.00
2019-05-25T22:42:38.459Z,100498.00
2019-05-25T22:45:08.002Z,100492.00
2019-05-25T22:47:35.967Z,100492.00
2019-05-25T22:50:05.397Z,100495.00
2019-05-25T22:52:33.292Z,100496.00
2019-05-25T22:55:01.197Z,100489.00
2019-05-25T22:57:29.231Z,100492.00
2019-05-25T22:59:57.079Z,100499.00
2019-05-25T23:02:26.068Z,100495.00
2019-05-25T23:04:54.083Z,100500.00
2019-05-25T23:07:21.950Z,100500.00
2019-05-25T23:09:49.818Z,100500.00
2019-05-25T23:12:17.715Z,100502.00
2019-05-25T23:14:45.569Z,100496.00
2019-05-25T23:17:13.464Z,100503.00
2019-05-25T23:19:41.416Z,100503.00
2019-05-25T23:22:09.305Z,100491.00
2019-05-25T23:24:37.163Z,100501.00
2019-05-25T23:27:04.979Z,100497.00
2019-05-25T23:29:32.855Z,100494.00
2019-05-25T23:32:00.618Z,100497.00
2019-05-25T23:34:28.446Z,100492.00
2019-05-25T23:37:13.169Z,100497.00
2019-05-25T23:39:26.086Z,100492.00
2019-05-25T23:41:54.025Z,100492.00
2019-05-25T23:44:21.920Z,100498.00
2019-05-25T23:46:51.048Z,100498.00
2019-05-25T23:49:18.910Z,100495.00
2019-05-25T23:51:46.816Z,100488.00
2019-05-25T23:54:14.692Z,100493.00
2019-05-25T23:56:42.636Z,100490.00
2019-05-25T23:59:10.431Z,100476.00
